createdAt,value
2019-01-24T00:03:04.214Z,84.70
2019-01-24T00:07:21.005Z,85.70
2019-01-24T00:11:37.441Z,84.30
2019-01-24T00:15:53.884Z,84.10
2019-01-24T00:20:12.869Z,84.30
2019-01-24T00:24:29.309Z,84.00
2019-01-24T00:28:45.739Z,84.40
2019-01-24T00:33:02.162Z,84.60
2019-01-24T00:37:18.592Z,84.70
2019-01-24T00:41:35.064Z,84.80
2019-01-24T00:45:51.873Z,85.00
2019-01-24T00:50:11.000Z,84.60
2019-01-24T00:54:27.408Z,84.60
2019-01-24T00:58:43.867Z,84.90
2019-01-24T01:03:00.302Z,85.10
2019-01-24T01:07:17.315Z,85.40
2019-01-24T01:11:33.764Z,85.00
2019-01-24T01:15:50.320Z,84.90
2019-01-24T01:20:09.859Z,85.00
2019-01-24T01:24:26.649Z,84.70
2019-01-24T01:28:43.081Z,85.10
2019-01-24T01:32:59.519Z,85.70
2019-01-24T01:37:15.972Z,85.50
2019-01-24T01:41:32.421Z,85.60
2019-01-24T01:45:48.889Z,85.80
2019-01-24T01:50:09.703Z,85.70
2019-01-24T01:54:26.537Z,85.80
2019-01-24T01:58:43.001Z,85.70
2019-01-24T02:02:59.476Z,85.10
2019-01-24T02:07:15.913Z,85.00
2019-01-24T02:11:32.676Z,85.30
2019-01-24T02:15:49.263Z,85.30
2019-01-24T02:20:12.438Z,84.60
2019-01-24T02:24:29.653Z,84.40
2019-01-24T02:28:46.062Z,84.20
2019-01-24T02:33:02.510Z,84.80
2019-01-24T02:37:19.356Z,84.80
2019-01-24T02:41:35.816Z,84.70
2019-01-24T02:45:52.568Z,84.30
2019-01-24T02:50:12.349Z,84.00
2019-01-24T02:54:28.750Z,84.60
2019-01-24T02:58:45.189Z,84.60
2019-01-24T03:03:01.662Z,84.40
2019-01-24T03:07:18.092Z,84.50
2019-01-24T03:11:34.569Z,85.00
2019-01-24T03:15:51.020Z,85.10
2019-01-24T03:20:09.479Z,85.20
2019-01-24T03:24:26.312Z,85.70
2019-01-24T03:28:42.776Z,84.70
2019-01-24T03:32:59.250Z,84.20
2019-01-24T03:37:15.682Z,84.40
2019-01-24T03:41:32.124Z,85.40
2019-01-24T03:45:48.851Z,85.10
2019-01-24T03:50:08.764Z,84.70
2019-01-24T03:54:25.191Z,84.30
2019-01-24T03:58:41.627Z,83.60
2019-01-24T04:02:58.090Z,83.90
2019-01-24T04:07:14.535Z,84.20
2019-01-24T04:11:30.966Z,83.90
2019-01-24T04:15:47.439Z,83.10
2019-01-24T04:20:07.338Z,83.10
2019-01-24T04:24:23.886Z,83.60
2019-01-24T04:28:40.625Z,83.80
2019-01-24T04:32:57.391Z,83.30
2019-01-24T04:37:13.850Z,83.10
2019-01-24T04:41:30.268Z,83.10
2019-01-24T04:45:46.720Z,83.60
2019-01-24T04:50:06.556Z,84.10
2019-01-24T04:54:23.329Z,83.90
2019-01-24T04:58:39.812Z,84.10
2019-01-24T05:02:56.434Z,84.40
2019-01-24T05:07:12.872Z,84.60
2019-01-24T05:11:29.394Z,84.50
2019-01-24T05:15:45.986Z,84.00
2019-01-24T05:20:05.246Z,83.50
2019-01-24T05:24:21.830Z,84.00
2019-01-24T05:28:38.397Z,84.10
2019-01-24T05:32:55.461Z,83.90
2019-01-24T05:37:12.578Z,83.90
2019-01-24T05:41:29.065Z,83.90
2019-01-24T05:45:45.568Z,83.90
2019-01-24T05:50:04.311Z,83.90
2019-01-24T05:54:20.779Z,83.80
2019-01-24T05:58:37.257Z,83.80
2019-01-24T06:02:53.703Z,84.00
2019-01-24T06:07:10.435Z,84.20
2019-01-24T06:11:27.084Z,83.80
2019-01-24T06:15:44.193Z,84.50
2019-01-24T06:20:00.672Z,85.00
2019-01-24T06:24:17.134Z,84.50
2019-01-24T06:28:33.572Z,84.30
2019-01-24T06:32:50.342Z,83.60
2019-01-24T06:37:06.799Z,83.60
2019-01-24T06:41:23.251Z,83.70
2019-01-24T06:45:39.828Z,83.40
2019-01-24T06:49:56.283Z,83.30
2019-01-24T06:54:12.833Z,83.00
2019-01-24T06:58:29.299Z,83.20
2019-01-24T07:02:45.806Z,83.30
2019-01-24T07:07:02.246Z,83.50
2019-01-24T07:11:18.723Z,83.50
2019-01-24T07:15:35.446Z,83.40
2019-01-24T07:19:51.912Z,83.50
2019-01-24T07:24:08.352Z,83.40
2019-01-24T07:28:24.827Z,84.00
2019-01-24T07:32:41.558Z,84.20
2019-01-24T07:36:57.966Z,83.40
2019-01-24T07:41:14.407Z,83.10
2019-01-24T07:45:33.570Z,83.20
2019-01-24T07:49:49.967Z,83.30
2019-01-24T07:54:06.713Z,83.70
2019-01-24T07:58:23.421Z,83.70
2019-01-24T08:02:39.998Z,83.60
2019-01-24T08:06:56.493Z,83.60
2019-01-24T08:11:13.127Z,83.90
2019-01-24T08:15:29.548Z,83.60
2019-01-24T08:19:45.991Z,83.60
2019-01-24T08:24:02.724Z,84.10
2019-01-24T08:28:19.442Z,83.60
2019-01-24T08:32:35.867Z,83.50
2019-01-24T08:36:52.397Z,84.00
2019-01-24T08:41:08.942Z,83.30
2019-01-24T08:45:25.375Z,83.70
2019-01-24T08:49:42.092Z,83.80
2019-01-24T08:53:58.532Z,83.90
2019-01-24T08:58:15.202Z,83.80
2019-01-24T09:02:32.062Z,83.70
2019-01-24T09:06:48.617Z,84.10
2019-01-24T09:11:08.664Z,83.90
2019-01-24T09:15:25.237Z,83.20
2019-01-24T09:19:41.755Z,83.30
2019-01-24T09:23:58.590Z,83.20
2019-01-24T09:28:15.229Z,83.00
2019-01-24T09:32:35.653Z,83.20
2019-01-24T09:36:52.261Z,82.80
2019-01-24T09:41:08.869Z,81.90
2019-01-24T09:45:27.480Z,81.80
2019-01-24T09:49:45.913Z,81.30
2019-01-24T09:54:02.672Z,81.30
2019-01-24T09:58:19.203Z,81.60
2019-01-24T10:02:35.705Z,81.60
2019-01-24T10:06:56.128Z,81.70
2019-01-24T10:11:12.566Z,81.30
2019-01-24T10:15:28.964Z,80.90
2019-01-24T10:19:45.672Z,81.30
2019-01-24T10:24:02.199Z,80.50
2019-01-24T10:28:18.649Z,79.40
2019-01-24T10:32:35.085Z,79.50
2019-01-24T10:36:51.790Z,78.10
2019-01-24T10:41:08.218Z,78.40
2019-01-24T10:45:24.675Z,77.70
2019-01-24T10:49:41.382Z,77.50
2019-01-24T10:53:57.820Z,75.40
2019-01-24T10:58:14.236Z,76.00
2019-01-24T11:02:30.707Z,75.50
2019-01-24T11:06:50.093Z,76.20
2019-01-24T11:11:05.898Z,75.50
2019-01-24T11:15:23.390Z,75.70
2019-01-24T11:19:40.154Z,75.40
2019-01-24T11:23:56.695Z,74.60
2019-01-24T11:28:13.230Z,74.40
2019-01-24T11:32:31.676Z,74.10
2019-01-24T11:36:48.084Z,73.60
2019-01-24T11:41:04.615Z,74.10
2019-01-24T11:45:32.803Z,72.90
2019-01-24T11:49:49.216Z,71.50
2019-01-24T11:54:05.636Z,73.60
2019-01-24T11:58:22.928Z,73.50
2019-01-24T12:02:39.771Z,72.50
2019-01-24T12:06:56.395Z,73.20
2019-01-24T12:11:12.861Z,72.50
2019-01-24T12:15:30.720Z,70.60
2019-01-24T12:19:47.148Z,70.60
2019-01-24T12:24:03.567Z,71.40
2019-01-24T12:28:19.986Z,72.40
2019-01-24T12:32:36.422Z,73.30
2019-01-24T12:36:52.867Z,74.00
2019-01-24T12:41:09.280Z,73.10
2019-01-24T12:45:34.689Z,73.00
2019-01-24T12:49:51.217Z,73.80
2019-01-24T12:54:07.649Z,73.30
2019-01-24T12:58:31.694Z,72.60
2019-01-24T13:02:51.106Z,73.90
2019-01-24T13:07:07.753Z,73.50
2019-01-24T13:11:24.184Z,73.60
2019-01-24T13:15:41.595Z,72.30
2019-01-24T13:19:58.005Z,74.10
2019-01-24T13:24:14.438Z,73.80
2019-01-24T13:28:31.860Z,74.50
2019-01-24T13:32:48.293Z,76.10
2019-01-24T13:37:04.711Z,75.60
2019-01-24T13:41:21.156Z,74.50
2019-01-24T13:45:37.603Z,75.60
2019-01-24T13:49:54.049Z,75.10
2019-01-24T13:54:10.518Z,75.90
2019-01-24T13:58:26.957Z,76.70
2019-01-24T14:02:44.789Z,76.60
2019-01-24T14:07:01.232Z,76.00
2019-01-24T14:11:18.177Z,76.40
2019-01-24T14:15:34.790Z,76.70
2019-01-24T14:19:51.283Z,76.80
2019-01-24T14:24:08.723Z,76.60
2019-01-24T14:28:25.191Z,76.60
2019-01-24T14:32:41.595Z,77.00
2019-01-24T14:36:58.246Z,77.50
2019-01-24T14:41:15.092Z,77.10
2019-01-24T14:45:31.519Z,76.70
2019-01-24T14:49:47.933Z,77.10
2019-01-24T14:54:04.397Z,77.70
2019-01-24T14:58:21.131Z,77.90
2019-01-24T15:02:37.571Z,77.60
2019-01-24T15:06:54.022Z,78.00
2019-01-24T15:11:10.455Z,78.60
2019-01-24T15:15:26.893Z,79.00
2019-01-24T15:19:43.394Z,79.90
2019-01-24T15:23:59.894Z,80.70
2019-01-24T15:28:16.353Z,80.80
2019-01-24T15:32:33.945Z,80.70
2019-01-24T15:36:51.390Z,81.50
2019-01-24T15:41:08.204Z,81.90
2019-01-24T15:45:25.342Z,82.20
2019-01-24T15:49:41.835Z,82.40
2019-01-24T15:53:58.607Z,83.00
2019-01-24T15:58:15.492Z,83.40
2019-01-24T16:02:31.982Z,83.40
2019-01-24T16:06:49.427Z,83.50
2019-01-24T16:11:06.847Z,83.80
2019-01-24T16:15:31.107Z,83.90
2019-01-24T16:19:47.574Z,84.10
2019-01-24T16:24:04.103Z,83.60
2019-01-24T16:28:24.680Z,84.30
2019-01-24T16:32:38.944Z,85.00
2019-01-24T16:36:55.471Z,84.90
2019-01-24T16:41:11.976Z,84.30
2019-01-24T16:45:28.714Z,84.30
2019-01-24T16:49:45.648Z,83.70
2019-01-24T16:54:03.373Z,83.50
2019-01-24T16:58:19.900Z,83.40
2019-01-24T17:02:36.382Z,83.80
2019-01-24T17:06:52.910Z,83.20
2019-01-24T17:11:09.350Z,83.50
2019-01-24T17:15:26.033Z,83.60
2019-01-24T18:30:21.556Z,84.20
2019-01-24T18:50:37.298Z,84.40
2019-01-24T18:55:21.598Z,85.20
2019-01-24T19:05:36.312Z,84.30
2019-01-24T19:10:07.988Z,84.00
2019-01-24T19:14:36.523Z,84.30
2019-01-24T19:19:05.280Z,84.30
2019-01-24T19:23:28.629Z,84.20
2019-01-24T19:27:47.274Z,84.20
2019-01-24T19:32:15.492Z,84.60
2019-01-24T19:36:41.879Z,84.60
2019-01-24T19:41:14.659Z,84.20
2019-01-24T19:45:38.624Z,84.20
2019-01-24T19:50:04.488Z,84.10
2019-01-24T19:54:27.208Z,84.20
2019-01-24T19:58:52.662Z,83.90
2019-01-24T20:03:21.220Z,84.30
2019-01-24T20:07:54.718Z,83.90
2019-01-24T20:12:17.008Z,83.80
2019-01-24T20:16:35.314Z,83.90
2019-01-24T20:21:01.085Z,84.10
2019-01-24T20:25:38.398Z,84.20
2019-01-24T20:29:56.535Z,84.00
2019-01-24T20:34:20.366Z,84.20
2019-01-24T20:38:48.921Z,84.10
2019-01-24T20:43:13.337Z,84.10
2019-01-24T20:47:30.252Z,84.20
2019-01-24T20:51:51.832Z,84.10
2019-01-24T20:56:19.864Z,84.50
2019-01-24T21:00:48.691Z,84.50
2019-01-24T21:05:06.246Z,85.10
2019-01-24T21:09:25.601Z,84.20
2019-01-24T21:13:46.855Z,84.60
2019-01-24T21:18:08.676Z,84.60
2019-01-24T21:22:27.179Z,84.50
2019-01-24T21:26:44.790Z,85.40
2019-01-24T21:31:01.276Z,85.40
2019-01-24T21:35:18.159Z,85.30
2019-01-24T21:39:34.652Z,85.10
2019-01-24T21:43:51.317Z,85.10
2019-01-24T21:48:07.915Z,85.20
2019-01-24T21:52:24.370Z,85.40
2019-01-24T21:56:40.948Z,85.30
2019-01-24T22:00:57.832Z,85.60
2019-01-24T22:05:14.526Z,85.40
2019-01-24T22:09:31.144Z,85.40
2019-01-24T22:13:47.727Z,85.60
2019-01-24T22:18:04.247Z,85.80
2019-01-24T22:22:21.090Z,85.80
2019-01-24T22:26:37.527Z,85.90
2019-01-24T22:30:56.107Z,85.90
2019-01-24T22:35:12.767Z,86.00
2019-01-24T22:39:36.419Z,86.40
2019-01-24T22:43:47.950Z,86.30
2019-01-24T22:48:04.891Z,86.10
2019-01-24T22:52:21.605Z,86.10
2019-01-24T22:56:38.104Z,86.30
2019-01-24T23:01:07.342Z,86.30
2019-01-24T23:05:23.795Z,86.50
2019-01-24T23:09:44.180Z,86.80
2019-01-24T23:13:58.573Z,87.10
2019-01-24T23:18:15.190Z,87.20
2019-01-24T23:22:32.567Z,87.20
2019-01-24T23:26:49.395Z,87.30
2019-01-24T23:31:05.926Z,87.40
2019-01-24T23:35:22.803Z,87.50
2019-01-24T23:39:39.339Z,87.60
2019-01-24T23:43:55.866Z,87.40
2019-01-24T23:48:12.518Z,87.50
2019-01-24T23:52:29.014Z,87.50
2019-01-24T23:56:45.505Z,87.50
